createdAt,value
2019-02-25T00:00:14.546Z,102444.23
2019-02-25T00:02:42.869Z,102444.98
2019-02-25T00:05:12.063Z,102443.56
2019-02-25T00:07:40.374Z,102446.70
2019-02-25T00:10:09.744Z,102449.03
2019-02-25T00:12:38.041Z,102443.26
2019-02-25T00:15:08.313Z,102441.73
2019-02-25T00:17:39.405Z,102437.58
2019-02-25T00:20:11.333Z,102430.72
2019-02-25T00:22:39.637Z,102434.70
2019-02-25T00:25:11.511Z,102439.53
2019-02-25T00:27:39.823Z,102436.60
2019-02-25T00:30:11.358Z,102439.64
2019-02-25T00:32:39.664Z,102442.29
2019-02-25T00:35:08.141Z,102448.70
2019-02-25T00:37:36.618Z,102444.47
2019-02-25T00:40:06.370Z,102448.52
2019-02-25T00:42:35.199Z,102445.55
2019-02-25T00:45:06.364Z,102446.36
2019-02-25T00:47:34.673Z,102451.35
2019-02-25T00:50:03.973Z,102458.27
2019-02-25T00:52:32.432Z,102459.39
2019-02-25T00:55:00.784Z,102462.80
2019-02-25T00:57:29.088Z,102457.11
2019-02-25T00:59:57.461Z,102459.48
2019-02-25T01:02:25.821Z,102456.50
2019-02-25T01:04:54.212Z,102465.11
2019-02-25T01:07:22.577Z,102467.05
2019-02-25T01:09:51.010Z,102460.58
2019-02-25T01:12:19.403Z,102460.53
2019-02-25T01:14:47.785Z,102465.06
2019-02-25T01:17:16.147Z,102468.43
2019-02-25T01:19:44.472Z,102466.81
2019-02-25T01:22:12.812Z,102464.77
2019-02-25T01:24:41.129Z,102466.07
2019-02-25T01:27:09.484Z,102474.81
2019-02-25T01:29:37.811Z,102459.41
2019-02-25T01:32:06.176Z,102464.96
2019-02-25T01:34:34.510Z,102473.48
2019-02-25T01:37:02.887Z,102462.89
2019-02-25T01:39:31.235Z,102469.17
2019-02-25T01:41:59.706Z,102468.70
2019-02-25T01:44:28.041Z,102470.08
2019-02-25T01:46:56.492Z,102464.13
2019-02-25T01:49:24.834Z,102466.41
2019-02-25T01:51:53.625Z,102464.16
2019-02-25T01:54:21.936Z,102457.13
2019-02-25T01:56:50.269Z,102459.13
2019-02-25T01:59:18.588Z,102455.28
2019-02-25T02:01:46.924Z,102451.13
2019-02-25T02:04:15.282Z,102454.60
2019-02-25T02:06:43.681Z,102450.75
2019-02-25T02:09:12.866Z,102450.13
2019-02-25T02:11:41.230Z,102440.86
2019-02-25T02:14:10.013Z,102442.69
2019-02-25T02:16:38.332Z,102442.56
2019-02-25T02:19:06.700Z,102445.25
2019-02-25T02:21:35.141Z,102455.45
2019-02-25T02:24:03.525Z,102451.54
2019-02-25T02:26:32.904Z,102457.05
2019-02-25T02:29:01.257Z,102461.34
2019-02-25T02:31:29.594Z,102465.28
2019-02-25T02:33:57.964Z,102459.24
2019-02-25T02:36:26.280Z,102461.09
2019-02-25T02:38:54.631Z,102467.19
2019-02-25T02:41:22.964Z,102469.08
2019-02-25T02:43:51.310Z,102468.38
2019-02-25T02:46:24.478Z,102469.12
2019-02-25T02:48:56.457Z,102462.47
2019-02-25T02:51:24.792Z,102453.11
2019-02-25T02:53:53.146Z,102454.37
2019-02-25T02:56:21.669Z,102457.67
2019-02-25T02:58:49.990Z,102464.36
2019-02-25T03:01:18.339Z,102446.97
2019-02-25T03:03:47.644Z,102452.47
2019-02-25T03:06:16.020Z,102454.07
2019-02-25T03:08:44.377Z,102452.30
2019-02-25T03:11:12.783Z,102442.93
2019-02-25T03:13:41.134Z,102441.34
2019-02-25T03:16:09.453Z,102437.54
2019-02-25T03:18:37.813Z,102437.22
2019-02-25T03:21:06.131Z,102436.94
2019-02-25T03:23:34.468Z,102429.20
2019-02-25T03:26:02.804Z,102429.41
2019-02-25T03:28:31.097Z,102434.73
2019-02-25T03:30:59.486Z,102435.62
2019-02-25T03:33:27.792Z,102436.56
2019-02-25T03:35:56.144Z,102443.36
2019-02-25T03:38:24.486Z,102443.63
2019-02-25T03:40:52.852Z,102444.98
2019-02-25T03:43:21.215Z,102440.16
2019-02-25T03:45:49.561Z,102440.52
2019-02-25T03:48:17.883Z,102430.78
2019-02-25T03:50:46.204Z,102442.66
2019-02-25T03:53:14.521Z,102442.42
2019-02-25T03:55:42.950Z,102436.77
2019-02-25T03:58:11.943Z,102436.23
2019-02-25T04:00:40.258Z,102436.16
2019-02-25T04:03:09.911Z,102440.59
2019-02-25T04:05:38.373Z,102438.78
2019-02-25T04:08:06.745Z,102433.69
2019-02-25T04:10:35.352Z,102435.73
2019-02-25T04:13:03.748Z,102428.09
2019-02-25T04:15:34.055Z,102444.84
2019-02-25T04:18:02.469Z,102451.79
2019-02-25T04:20:30.826Z,102448.05
2019-02-25T04:22:59.221Z,102451.03
2019-02-25T04:25:27.514Z,102446.03
2019-02-25T04:27:55.852Z,102448.91
2019-02-25T04:30:24.256Z,102451.41
2019-02-25T04:32:52.633Z,102460.97
2019-02-25T04:35:20.973Z,102458.96
2019-02-25T04:37:49.369Z,102458.23
2019-02-25T04:40:17.787Z,102457.94
2019-02-25T04:42:46.129Z,102451.96
2019-02-25T04:45:18.035Z,102456.62
2019-02-25T04:47:46.377Z,102459.34
2019-02-25T04:50:15.393Z,102458.56
2019-02-25T04:52:43.854Z,102455.76
2019-02-25T04:55:13.906Z,102456.39
2019-02-25T04:57:42.458Z,102454.39
2019-02-25T05:00:13.175Z,102447.61
2019-02-25T05:02:41.554Z,102446.36
2019-02-25T05:05:10.181Z,102442.71
2019-02-25T05:07:38.527Z,102449.92
2019-02-25T05:10:08.491Z,102457.55
2019-02-25T05:12:37.117Z,102453.82
2019-02-25T05:15:06.743Z,102448.62
2019-02-25T05:17:35.930Z,102443.75
2019-02-25T05:20:06.502Z,102455.39
2019-02-25T05:22:34.851Z,102453.36
2019-02-25T05:25:08.990Z,102450.39
2019-02-25T05:27:37.312Z,102451.77
2019-02-25T05:30:08.972Z,102448.17
2019-02-25T05:32:37.391Z,102451.97
2019-02-25T05:35:08.054Z,102451.33
2019-02-25T05:37:36.384Z,102450.29
2019-02-25T05:40:09.315Z,102455.78
2019-02-25T05:42:37.737Z,102449.00
2019-02-25T05:45:08.150Z,102447.73
2019-02-25T05:47:36.838Z,102460.52
2019-02-25T05:50:07.885Z,102461.58
2019-02-25T05:52:36.221Z,102469.42
2019-02-25T05:55:08.003Z,102468.30
2019-02-25T05:57:36.958Z,102460.77
2019-02-25T06:00:09.695Z,102468.03
2019-02-25T06:02:38.035Z,102464.14
2019-02-25T06:05:07.414Z,102463.80
2019-02-25T06:07:36.111Z,102459.82
2019-02-25T06:10:07.153Z,102454.85
2019-02-25T06:12:35.509Z,102455.72
2019-02-25T06:15:08.828Z,102458.77
2019-02-25T06:17:37.170Z,102457.94
2019-02-25T06:20:09.446Z,102460.87
2019-02-25T06:22:37.797Z,102457.33
2019-02-25T06:25:08.611Z,102457.69
2019-02-25T06:27:36.987Z,102464.72
2019-02-25T06:30:09.420Z,102464.72
2019-02-25T06:32:37.725Z,102468.28
2019-02-25T06:35:07.700Z,102458.79
2019-02-25T06:37:36.018Z,102456.55
2019-02-25T06:40:06.947Z,102461.08
2019-02-25T06:42:35.310Z,102455.90
2019-02-25T06:45:06.194Z,102458.51
2019-02-25T06:47:34.958Z,102454.20
2019-02-25T06:50:04.430Z,102459.89
2019-02-25T06:52:32.777Z,102453.22
2019-02-25T06:55:01.137Z,102453.20
2019-02-25T06:57:29.550Z,102456.81
2019-02-25T06:59:57.860Z,102460.56
2019-02-25T07:02:26.255Z,102454.17
2019-02-25T07:04:57.123Z,102444.57
2019-02-25T07:07:28.776Z,102449.16
2019-02-25T07:09:59.350Z,102452.36
2019-02-25T07:12:29.778Z,102459.12
2019-02-25T07:14:59.446Z,102460.80
2019-02-25T07:17:28.160Z,102460.59
2019-02-25T07:19:59.155Z,102466.47
2019-02-25T07:22:29.599Z,102462.24
2019-02-25T07:25:00.415Z,102458.42
2019-02-25T07:27:31.123Z,102458.00
2019-02-25T07:30:01.804Z,102468.34
2019-02-25T07:32:32.964Z,102456.89
2019-02-25T07:35:02.642Z,102455.88
2019-02-25T07:37:34.606Z,102449.14
2019-02-25T07:40:06.694Z,102455.07
2019-02-25T07:42:35.980Z,102463.55
2019-02-25T07:45:11.738Z,102454.83
2019-02-25T07:47:43.902Z,102456.40
2019-02-25T07:50:18.173Z,102459.20
2019-02-25T07:52:48.477Z,102468.18
2019-02-25T07:55:21.589Z,102484.50
2019-02-25T07:57:53.855Z,102487.53
2019-02-25T08:00:25.858Z,102491.73
2019-02-25T08:02:56.982Z,102486.77
2019-02-25T08:08:50.070Z,102487.37
2019-02-25T08:11:21.886Z,102491.09
2019-02-25T08:13:53.174Z,102489.41
2019-02-25T08:16:24.405Z,102489.14
2019-02-25T08:18:55.609Z,102489.15
2019-02-25T08:21:27.270Z,102492.60
2019-02-25T08:23:59.041Z,102496.00
2019-02-25T08:26:30.487Z,102496.20
2019-02-25T08:29:08.419Z,102497.59
2019-02-25T08:31:38.156Z,102499.12
2019-02-25T08:34:18.159Z,102488.45
2019-02-25T08:36:45.844Z,102493.92
2019-02-25T08:39:17.040Z,102490.27
2019-02-25T08:41:48.080Z,102495.22
2019-02-25T08:44:19.333Z,102495.70
2019-02-25T08:46:50.580Z,102491.42
2019-02-25T08:49:21.886Z,102490.86
2019-02-25T08:51:51.572Z,102494.88
2019-02-25T08:54:21.220Z,102490.73
2019-02-25T08:56:50.872Z,102495.74
2019-02-25T08:59:20.637Z,102497.73
2019-02-25T09:01:50.333Z,102489.00
2019-02-25T09:04:19.865Z,102488.45
2019-02-25T09:06:49.504Z,102479.55
2019-02-25T09:09:19.111Z,102478.40
2019-02-25T09:11:48.699Z,102478.77
2019-02-25T09:14:18.256Z,102473.06
2019-02-25T09:16:47.580Z,102467.67
2019-02-25T09:19:17.323Z,102470.27
2019-02-25T09:21:46.911Z,102462.42
2019-02-25T09:24:16.440Z,102477.58
2019-02-25T09:26:45.991Z,102476.98
2019-02-25T09:29:15.440Z,102472.53
2019-02-25T09:31:45.041Z,102471.22
2019-02-25T09:34:14.472Z,102470.58
2019-02-25T09:36:44.012Z,102473.51
2019-02-25T09:39:16.693Z,102468.71
2019-02-25T09:41:46.682Z,102468.78
2019-02-25T09:44:16.192Z,102466.93
2019-02-25T09:46:45.823Z,102458.89
2019-02-25T09:49:15.268Z,102461.77
2019-02-25T09:51:44.906Z,102470.12
2019-02-25T09:54:14.397Z,102467.84
2019-02-25T09:56:43.977Z,102456.67
2019-02-25T09:59:13.454Z,102462.25
2019-02-25T10:01:43.204Z,102459.53
2019-02-25T10:04:12.746Z,102453.73
2019-02-25T10:06:42.239Z,102448.70
2019-02-25T10:09:11.820Z,102450.45
2019-02-25T10:11:41.534Z,102450.93
2019-02-25T10:14:11.144Z,102445.17
2019-02-25T10:16:40.778Z,102447.56
2019-02-25T10:19:10.355Z,102446.92
2019-02-25T10:21:39.883Z,102450.89
2019-02-25T10:24:10.216Z,102441.36
2019-02-25T10:26:42.752Z,102440.61
2019-02-25T10:29:12.294Z,102439.32
2019-02-25T10:31:43.713Z,102427.61
2019-02-25T10:34:13.041Z,102425.52
2019-02-25T10:36:44.079Z,102430.72
2019-02-25T10:39:15.532Z,102430.75
2019-02-25T10:41:44.951Z,102430.25
2019-02-25T10:44:14.401Z,102433.29
2019-02-25T10:46:44.959Z,102436.87
2019-02-25T10:49:15.493Z,102438.68
2019-02-25T10:51:45.638Z,102443.70
2019-02-25T10:54:16.916Z,102450.76
2019-02-25T10:56:49.814Z,102449.66
2019-02-25T10:59:19.562Z,102442.08
2019-02-25T11:01:49.010Z,102446.47
2019-02-25T11:04:20.026Z,102443.66
2019-02-25T11:06:49.959Z,102435.66
2019-02-25T11:09:21.402Z,102435.81
2019-02-25T11:11:52.771Z,102437.70
2019-02-25T11:14:22.432Z,102440.97
2019-02-25T11:16:52.978Z,102440.05
2019-02-25T11:19:22.770Z,102430.23
2019-02-25T11:21:53.200Z,102426.19
2019-02-25T11:24:23.368Z,102428.30
2019-02-25T11:26:53.596Z,102430.52
2019-02-25T11:29:23.126Z,102420.48
2019-02-25T11:31:53.563Z,102419.34
2019-02-25T11:34:23.766Z,102420.00
2019-02-25T11:36:54.890Z,102416.34
2019-02-25T11:39:25.295Z,102422.34
2019-02-25T11:41:55.505Z,102419.09
2019-02-25T11:44:26.154Z,102410.13
2019-02-25T11:46:56.228Z,102409.00
2019-02-25T11:49:25.775Z,102401.09
2019-02-25T11:51:55.351Z,102400.13
2019-02-25T11:54:24.853Z,102400.94
2019-02-25T11:56:54.319Z,102393.36
2019-02-25T11:59:24.409Z,102384.28
2019-02-25T12:01:53.875Z,102388.77
2019-02-25T12:04:23.340Z,102390.62
2019-02-25T12:06:52.878Z,102391.69
2019-02-25T12:09:22.428Z,102387.11
2019-02-25T12:11:51.989Z,102387.81
2019-02-25T12:14:21.482Z,102384.95
2019-02-25T12:16:51.148Z,102377.53
2019-02-25T12:19:21.595Z,102381.91
2019-02-25T12:21:51.113Z,102383.35
2019-02-25T12:24:20.760Z,102375.03
2019-02-25T12:26:50.353Z,102370.14
2019-02-25T12:29:19.865Z,102369.48
2019-02-25T12:31:49.460Z,102361.77
2019-02-25T12:34:18.913Z,102357.81
2019-02-25T12:39:10.010Z,102354.56
2019-02-25T12:41:39.670Z,102356.25
2019-02-25T12:44:09.437Z,102357.11
2019-02-25T12:46:39.701Z,102352.76
2019-02-25T12:49:09.735Z,102353.06
2019-02-25T12:51:39.399Z,102355.22
2019-02-25T12:54:09.093Z,102343.95
2019-02-25T12:56:38.657Z,102342.73
2019-02-25T12:59:08.483Z,102335.48
2019-02-25T13:01:37.951Z,102337.05
2019-02-25T13:04:07.796Z,102336.04
2019-02-25T13:06:37.273Z,102329.34
2019-02-25T13:09:09.955Z,102326.26
2019-02-25T13:11:39.975Z,102320.82
2019-02-25T13:14:09.841Z,102315.23
2019-02-25T13:16:39.451Z,102311.34
2019-02-25T13:19:09.024Z,102302.95
2019-02-25T13:21:38.515Z,102303.68
2019-02-25T13:24:09.905Z,102301.94
2019-02-25T13:26:39.640Z,102295.70
2019-02-25T13:29:09.400Z,102289.55
2019-02-25T13:31:38.870Z,102282.56
2019-02-25T13:34:08.621Z,102276.48
2019-02-25T13:36:38.179Z,102273.52
2019-02-25T13:39:08.484Z,102262.06
2019-02-25T13:41:37.948Z,102261.50
2019-02-25T13:44:07.646Z,102250.02
2019-02-25T13:46:37.111Z,102245.52
2019-02-25T13:49:06.998Z,102237.06
2019-02-25T13:51:36.173Z,102228.75
2019-02-25T13:54:05.809Z,102220.86
2019-02-25T13:56:35.332Z,102219.34
2019-02-25T13:59:05.046Z,102209.06
2019-02-25T14:01:34.642Z,102199.23
2019-02-25T14:04:04.261Z,102193.00
2019-02-25T14:06:33.744Z,102193.00
2019-02-25T14:09:04.845Z,102194.84
2019-02-25T14:11:34.381Z,102193.16
2019-02-25T14:14:04.116Z,102185.08
2019-02-25T14:16:33.733Z,102185.57
2019-02-25T14:19:04.733Z,102189.05
2019-02-25T14:21:36.339Z,102189.06
2019-02-25T14:24:05.706Z,102186.48
2019-02-25T14:26:35.160Z,102183.77
2019-02-25T14:29:07.106Z,102180.98
2019-02-25T14:31:36.822Z,102179.45
2019-02-25T14:34:06.563Z,102168.52
2019-02-25T14:36:36.523Z,102166.32
2019-02-25T14:39:09.169Z,102159.05
2019-02-25T14:41:38.780Z,102154.48
2019-02-25T14:44:08.459Z,102150.12
2019-02-25T14:46:37.934Z,102149.13
2019-02-25T14:49:08.300Z,102153.13
2019-02-25T14:51:37.853Z,102146.52
2019-02-25T14:54:07.847Z,102151.20
2019-02-25T14:56:37.481Z,102144.72
2019-02-25T14:59:07.856Z,102150.17
2019-02-25T15:01:38.537Z,102150.33
2019-02-25T15:04:08.177Z,102159.17
2019-02-25T15:06:37.783Z,102156.05
2019-02-25T15:09:11.897Z,102147.39
2019-02-25T15:11:39.725Z,102145.23
2019-02-25T15:14:10.687Z,102151.72
2019-02-25T15:16:40.797Z,102144.44
2019-02-25T15:19:10.354Z,102147.51
2019-02-25T15:21:42.999Z,102150.18
2019-02-25T15:24:12.640Z,102153.06
2019-02-25T15:26:43.314Z,102148.79
2019-02-25T15:29:13.031Z,102140.81
2019-02-25T15:31:44.403Z,102143.09
2019-02-25T15:34:15.050Z,102141.18
2019-02-25T15:36:45.095Z,102134.52
2019-02-25T15:39:14.694Z,102136.29
2019-02-25T15:41:46.291Z,102135.30
2019-02-25T15:44:15.585Z,102133.80
2019-02-25T15:46:45.062Z,102137.90
2019-02-25T15:49:15.140Z,102135.85
2019-02-25T15:51:45.759Z,102129.01
2019-02-25T15:54:15.398Z,102128.98
2019-02-25T15:56:45.010Z,102131.58
2019-02-25T15:59:14.542Z,102129.09
2019-02-25T16:01:44.635Z,102134.53
2019-02-25T16:04:14.171Z,102129.64
2019-02-25T16:06:44.193Z,102133.12
2019-02-25T16:09:17.080Z,102126.95
2019-02-25T16:11:47.447Z,102129.98
2019-02-25T16:14:19.129Z,102134.80
2019-02-25T16:16:48.665Z,102131.53
2019-02-25T16:19:18.219Z,102139.15
2019-02-25T16:21:47.422Z,102130.20
2019-02-25T16:24:18.599Z,102128.06
2019-02-25T16:26:48.824Z,102129.36
2019-02-25T16:29:18.367Z,102125.83
2019-02-25T16:31:49.049Z,102130.53
2019-02-25T16:34:20.631Z,102134.73
2019-02-25T16:36:51.947Z,102135.78
2019-02-25T16:39:21.534Z,102131.59
2019-02-25T16:41:51.222Z,102139.53
2019-02-25T16:44:20.830Z,102147.12
2019-02-25T16:46:50.852Z,102139.02
2019-02-25T16:49:20.578Z,102144.25
2019-02-25T16:51:51.010Z,102141.86
2019-02-25T16:54:22.929Z,102136.98
2019-02-25T16:56:52.834Z,102142.20
2019-02-25T16:59:24.442Z,102146.27
2019-02-25T17:01:55.844Z,102139.33
2019-02-25T17:07:40.502Z,102144.52
2019-02-25T17:10:13.508Z,102145.17
2019-02-25T17:12:43.776Z,102149.95
2019-02-25T17:15:17.420Z,102146.62
2019-02-25T17:17:46.941Z,102148.97
2019-02-25T17:20:17.485Z,102147.47
2019-02-25T17:22:47.292Z,102149.82
2019-02-25T17:25:17.212Z,102155.89
2019-02-25T17:27:46.940Z,102160.82
2019-02-25T17:30:20.196Z,102167.16
2019-02-25T17:32:50.950Z,102170.86
2019-02-25T17:35:23.574Z,102166.31
2019-02-25T17:37:53.359Z,102166.98
2019-02-25T17:40:23.975Z,102168.09
2019-02-25T17:42:54.535Z,102172.52
2019-02-25T17:45:27.704Z,102175.66
2019-02-25T17:47:58.810Z,102168.31
2019-02-25T17:50:30.649Z,102170.67
2019-02-25T17:53:01.519Z,102173.48
2019-02-25T17:55:34.492Z,102177.73
2019-02-25T17:58:03.762Z,102178.27
2019-02-25T18:00:37.427Z,102172.65
2019-02-25T18:03:07.421Z,102182.91
2019-02-25T18:05:38.761Z,102183.55
2019-02-25T18:08:10.579Z,102178.58
2019-02-25T18:10:43.108Z,102169.03
2019-02-25T18:13:12.833Z,102172.64
2019-02-25T18:15:42.765Z,102168.75
2019-02-25T18:18:15.159Z,102167.26
2019-02-25T18:20:43.995Z,102175.64
2019-02-25T18:23:14.391Z,102184.06
2019-02-25T18:25:44.329Z,102186.34
2019-02-25T18:28:15.181Z,102186.34
2019-02-25T18:30:45.527Z,102189.22
2019-02-25T18:33:17.246Z,102187.84
2019-02-25T18:36:08.840Z,102193.94
2019-02-25T18:38:38.597Z,102189.27
2019-02-25T18:41:09.245Z,102194.41
2019-02-25T18:43:38.901Z,102196.28
2019-02-25T18:46:08.181Z,102195.22
2019-02-25T18:48:37.749Z,102193.30
2019-02-25T18:51:07.264Z,102190.42
2019-02-25T18:53:36.834Z,102191.66
2019-02-25T18:56:06.520Z,102192.23
2019-02-25T18:58:37.475Z,102196.81
2019-02-25T19:01:09.698Z,102191.98
2019-02-25T19:03:39.236Z,102191.16
2019-02-25T19:08:59.039Z,102197.83
2019-02-25T19:11:28.642Z,102197.79
2019-02-25T19:14:01.844Z,102187.59
2019-02-25T19:16:29.862Z,102190.20
2019-02-25T19:19:03.622Z,102192.02
2019-02-25T19:21:31.922Z,102185.91
2019-02-25T19:24:03.590Z,102186.09
2019-02-25T19:26:33.733Z,102185.30
2019-02-25T19:29:03.268Z,102188.75
2019-02-25T19:31:32.821Z,102185.41
2019-02-25T19:34:02.409Z,102184.78
2019-02-25T19:36:34.317Z,102189.58
2019-02-25T19:39:07.287Z,102189.48
2019-02-25T19:41:35.903Z,102188.41
2019-02-25T19:44:05.994Z,102186.83
2019-02-25T19:46:37.021Z,102190.73
2019-02-25T19:49:06.809Z,102193.63
2019-02-25T19:51:36.493Z,102199.64
2019-02-25T19:54:07.070Z,102199.64
2019-02-25T19:56:37.476Z,102201.83
2019-02-25T19:59:07.982Z,102205.84
2019-02-25T20:01:57.924Z,102199.64
2019-02-25T20:04:29.203Z,102199.84
2019-02-25T20:06:59.092Z,102204.45
2019-02-25T20:09:30.146Z,102191.69
2019-02-25T20:12:01.820Z,102192.66
2019-02-25T20:14:31.450Z,102188.27
2019-02-25T20:17:02.686Z,102195.66
2019-02-25T20:19:32.377Z,102199.75
2019-02-25T20:22:02.003Z,102197.42
2019-02-25T20:24:31.550Z,102191.25
2019-02-25T20:27:02.543Z,102199.72
2019-02-25T20:29:33.883Z,102194.28
2019-02-25T20:32:05.275Z,102193.16
2019-02-25T20:34:34.908Z,102194.19
2019-02-25T20:37:04.536Z,102198.63
2019-02-25T20:39:35.814Z,102195.94
2019-02-25T20:42:05.256Z,102192.48
2019-02-25T20:44:35.014Z,102198.03
2019-02-25T20:47:04.733Z,102194.29
2019-02-25T20:49:34.227Z,102198.48
2019-02-25T20:52:03.781Z,102196.95
2019-02-25T20:54:37.810Z,102196.17
2019-02-25T20:57:04.628Z,102194.56
2019-02-25T20:59:34.901Z,102192.16
2019-02-25T21:02:09.658Z,102190.23
2019-02-25T21:04:36.737Z,102188.89
2019-02-25T21:07:08.866Z,102186.87
2019-02-25T21:09:40.509Z,102188.85
2019-02-25T21:12:12.689Z,102186.94
2019-02-25T21:14:44.965Z,102181.25
2019-02-25T21:17:14.748Z,102180.88
2019-02-25T21:19:44.424Z,102177.06
2019-02-25T21:22:13.959Z,102174.50
2019-02-25T21:24:43.425Z,102172.50
2019-02-25T21:27:13.073Z,102166.19
2019-02-25T21:29:42.754Z,102171.80
2019-02-25T21:32:15.065Z,102167.77
2019-02-25T21:34:46.209Z,102161.02
2019-02-25T21:37:15.096Z,102164.56
2019-02-25T21:39:44.687Z,102166.25
2019-02-25T21:42:15.358Z,102162.10
2019-02-25T21:44:46.449Z,102160.33
2019-02-25T21:47:20.205Z,102153.56
2019-02-25T21:49:47.884Z,102157.95
2019-02-25T21:52:17.576Z,102165.97
2019-02-25T21:54:47.239Z,102161.11
2019-02-25T21:57:16.680Z,102161.39
2019-02-25T21:59:46.213Z,102158.44
2019-02-25T22:02:15.660Z,102160.61
2019-02-25T22:04:47.289Z,102159.39
2019-02-25T22:07:20.050Z,102159.20
2019-02-25T22:09:47.477Z,102157.09
2019-02-25T22:12:16.939Z,102165.63
2019-02-25T22:14:47.706Z,102165.69
2019-02-25T22:17:20.056Z,102165.00
2019-02-25T22:19:50.231Z,102158.19
2019-02-25T22:22:24.099Z,102153.91
2019-02-25T22:24:52.061Z,102154.77
2019-02-25T22:27:23.089Z,102167.14
2019-02-25T22:29:52.712Z,102163.80
2019-02-25T22:32:22.286Z,102162.15
2019-02-25T22:34:51.916Z,102168.49
2019-02-25T22:37:22.739Z,102166.08
2019-02-25T22:39:54.530Z,102172.18
2019-02-25T22:42:43.582Z,102167.31
2019-02-25T22:45:18.795Z,102164.66
2019-02-25T22:47:48.487Z,102158.72
2019-02-25T22:50:18.106Z,102159.91
2019-02-25T22:52:51.317Z,102157.38
2019-02-25T22:55:22.148Z,102160.05
2019-02-25T22:57:51.903Z,102164.16
2019-02-25T23:01:01.308Z,102161.52
2019-02-25T23:03:30.842Z,102167.32
2019-02-25T23:06:23.080Z,102170.48
2019-02-25T23:09:14.349Z,102173.14
2019-02-25T23:12:02.879Z,102177.49
2019-02-25T23:14:34.157Z,102168.16
2019-02-25T23:17:06.455Z,102172.00
2019-02-25T23:19:54.618Z,102172.39
2019-02-25T23:22:24.103Z,102170.97
2019-02-25T23:24:53.665Z,102171.94
2019-02-25T23:27:23.153Z,102173.12
2019-02-25T23:29:53.686Z,102173.55
2019-02-25T23:32:23.339Z,102172.04
2019-02-25T23:34:55.298Z,102172.04
2019-02-25T23:37:25.734Z,102188.63
2019-02-25T23:39:54.992Z,102190.93
2019-02-25T23:42:24.624Z,102181.64
2019-02-25T23:44:53.946Z,102185.64
2019-02-25T23:47:26.903Z,102181.12
2019-02-25T23:49:54.788Z,102181.12
2019-02-25T23:52:25.700Z,102186.58
2019-02-25T23:54:56.477Z,102189.33
2019-02-25T23:57:28.286Z,102194.84
2019-02-25T23:59:57.836Z,102185.52
